• Join FlightAware (Why Join?)
  • Login
  • US Flag 
08:05AM EDT


 

Airport Tracker/Info


-or-


 

Live Flight TrackerFlight Track Log ✈ FLG3458 ✈ 02-May-2013 ✈ KBNA - KJFK

Flight Track Log - Related Links

Times and Time Zones

All times are in EDT time to prevent confusion due to time zone crossing. See the FLG3458 flight status page for this flight to view local times or setup timezone preferences in your user account.

Time Position Orientation Groundspeed Altitude Reporting Facility
EDT Latitude Longitude Course Direction KTS MPH feet Rate Location/Type
05:49PM 36.1000 -86.6833 64° Northeast 164 189 1,400  Level Nashville TRACON
05:50PM 36.0500 -86.6333 141° Southeast 222 255 4,200 1,440 Climbing Nashville TRACON
05:51PM 36.1677 -86.2766 80° East  Level FlightAware Approximate
05:51PM 36.0167 -86.5667 122° Southeast 286 329 4,800  Level Nashville TRACON
05:52PM 36.1867 -86.1464 78° East  Level FlightAware Approximate
05:52PM 36.0667 -86.4667 58° Northeast 279 321 9,000  Level Nashville TRACON
05:53PM 36.2183 -86.0210 64° Northeast  Level FlightAware Approximate
05:53PM 36.0789 -86.4072 76° East 309 356 11,100  Level Memphis Center
05:54PM 36.2658 -85.9023 64° Northeast  Level FlightAware Approximate
05:54PM 36.1153 -86.3053 66° East 335 386 13,100  Level Memphis Center
05:55PM 36.1556 -86.1953 66° East 343 395 15,700 2,400 Climbing Memphis Center
05:56PM 36.1972 -86.0775 66° East 356 410 18,000 2,220 Climbing Memphis Center
05:57PM 36.2514 -85.9589 60° Northeast 377 434 20,200 1,980 Climbing Memphis Center
05:58PM 36.3508 -85.7381 61° Northeast 417 480 23,600 1,800 Climbing Indianapolis Center
05:59PM 36.4117 -85.6103 59° Northeast 426 490 25,300 1,620 Climbing Indianapolis Center
06:00PM 36.4739 -85.4794 59° Northeast 437 503 27,000 1,440 Climbing Indianapolis Center
06:02PM 36.5350 -85.3447 61° Northeast 443 510 28,300 1,440 Climbing Indianapolis Center
06:03PM 36.5667 -85.1567 78° East 457 526 30,000 1,260 Climbing Indianapolis Center
06:04PM 36.5925 -84.9969 79° East 465 535 31,000 480 Climbing Indianapolis Center
06:05PM 36.6189 -84.8331 79° East 477 549 31,000  Level Indianapolis Center
06:06PM 36.6464 -84.6650 78° East 491 565 31,000 240 Level Indianapolis Center
06:07PM 36.6758 -84.4933 78° East 484 557 31,600 720 Climbing Indianapolis Center
06:08PM 36.7050 -84.3275 78° East 488 562 32,600 1,140 Climbing Indianapolis Center
06:09PM 36.7333 -84.1611 78° East 490 564 34,000 1,200 Climbing Indianapolis Center
06:10PM 36.7847 -83.9772 71° East 480 552 35,100 960 Climbing Indianapolis Center
06:11PM 36.8389 -83.8281 66° East 472 543 36,000 420 Climbing Indianapolis Center
06:12PM 36.8942 -83.6814 65° Northeast 470 541 36,000  Level Indianapolis Center
06:13PM 36.9486 -83.5286 66° East 478 550 36,000  Level Indianapolis Center
06:14PM 37.0033 -83.3756 66° East 479 551 36,000  Level Indianapolis Center
06:15PM 37.0589 -83.2203 66° East 485 558 36,000 120 Level Indianapolis Center
06:16PM 37.1156 -83.0633 66° East 489 563 36,300 480 Climbing Indianapolis Center
06:17PM 37.1797 -82.8811 66° East 481 554 37,000 300 Climbing Indianapolis Center
06:18PM 37.2333 -82.7264 66° East 478 550 37,000  Level Indianapolis Center
06:19PM 37.2867 -82.5733 66° East 478 550 37,000  Level Indianapolis Center
06:20PM 37.3403 -82.4189 66° East 480 552 37,000  Level Indianapolis Center
06:21PM 37.3933 -82.2653 66° East 478 550 37,000  Level Indianapolis Center
06:22PM 37.4469 -82.1100 66° East 481 554 37,000  Level Indianapolis Center
06:23PM 37.5097 -81.9292 66° East 483 556 37,000  Level Indianapolis Center
06:24PM 37.5619 -81.7739 67° East 481 554 37,000  Level Indianapolis Center
06:25PM 37.6142 -81.6183 67° East 481 554 37,000  Level Indianapolis Center
06:26PM 37.6619 -81.4764 67° East 481 554 37,000  Level Indianapolis Center
06:27PM 37.7239 -81.2911 67° East 489 563 37,000  Level Indianapolis Center
06:28PM 37.7425 -81.2278 70° East 494 568 37,000  Level Washington Center
06:29PM 37.7833 -81.0678 72° East 482 555 37,000  Level Washington Center
06:30PM 37.7939 -80.8794 86° East 476 548 37,000  Level Washington Center
06:31PM 37.8053 -80.7094 85° East 481 554 37,000  Level Washington Center
06:32PM 37.8167 -80.5419 85° East 481 554 37,000  Level Washington Center
06:33PM 37.8275 -80.3794 85° East 475 547 37,000  Level Washington Center
06:34PM 37.8378 -80.2225 85° East 480 552 37,000  Level Washington Center
06:35PM 37.8483 -80.0547 85° East 480 552 37,000  Level Washington Center
06:36PM 37.8586 -79.8844 86° East 480 552 37,000  Level Washington Center
06:37PM 37.8708 -79.7142 85° East 480 552 37,000  Level Washington Center
06:38PM 37.8789 -79.5408 87° East 480 552 37,000  Level Washington Center
06:39PM 37.8906 -79.3678 85° East 480 552 37,000  Level Washington Center
06:40PM 37.8983 -79.1839 87° East 480 552 37,000  Level Washington Center
06:41PM 37.8764 -79.0144 99° East 475 547 37,000  Level Washington Center
06:42PM 37.8328 -78.8547 109° East 475 547 37,000  Level Washington Center
06:43PM 37.7847 -78.7003 111° Southeast 475 547 37,000  Level Washington Center
06:44PM 37.7408 -78.5436 109° East 480 552 37,000  Level Washington Center
06:45PM 37.6983 -78.3975 110° East 480 552 37,000  Level Washington Center
06:46PM 37.6539 -78.2411 110° East 475 547 37,000  Level Washington Center
06:47PM 37.6031 -78.0819 112° Southeast 475 547 37,000  Level Washington Center
06:48PM 37.5833 -77.9164 98° East 475 547 37,000  Level Washington Center
06:49PM 37.5783 -77.7483 92° East 470 541 37,000  Level Washington Center
06:50PM 37.5750 -77.5806 91° East 476 548 37,000  Level Washington Center
06:51PM 37.5714 -77.4103 91° East 476 548 37,000  Level Washington Center
06:52PM 37.5694 -77.2425 91° East 476 548 37,000  Level Washington Center
06:53PM 37.5678 -77.0589 91° East 476 548 37,000  Level Washington Center
06:54PM 37.5614 -76.8861 93° East 481 554 37,000  Level Washington Center
06:55PM 37.5569 -76.7131 92° East 481 554 37,000  Level Washington Center
06:56PM 37.5519 -76.5481 92° East 481 554 37,000  Level Washington Center
06:57PM 37.5469 -76.3803 92° East 481 554 37,000  Level Washington Center
06:58PM 37.5439 -76.2125 91° East 481 554 37,000  Level Washington Center
06:59PM 37.5778 -76.0714 73° East 465 535 37,000  Level Washington Center
07:00PM 37.6575 -75.9458 51° Northeast 438 504 37,000  Level Washington Center
07:01PM 37.7578 -75.8256 43° Northeast 444 511 37,000  Level Washington Center
07:02PM 37.8497 -75.7128 44° Northeast 444 511 37,000  Level Washington Center
07:03PM 37.9436 -75.6075 41° Northeast 450 518 37,000  Level Washington Center
07:04PM 38.0314 -75.5022 43° Northeast 444 511 37,000  Level Washington Center
07:05PM 38.1356 -75.4228 31° Northeast 439 505 37,000  Level Washington Center
07:06PM 38.2439 -75.3486 28° Northeast 439 505 37,000  Level Washington Center
07:07PM 38.3458 -75.2847 26° Northeast 439 505 37,000  Level Washington Center
07:08PM 38.4539 -75.2125 28° Northeast 439 505 37,000  Level Washington Center
07:09PM 38.5664 -75.1431 26° Northeast 439 505 37,000  Level Washington Center
07:10PM 38.6725 -75.0786 25° Northeast 439 505 37,000  Level Washington Center
07:11PM 38.7806 -75.0031 29° Northeast 434 499 37,000 -660 Level Washington Center
07:12PM 38.8800 -74.9278 31° Northeast 428 493 35,800 -1,680 Descending Washington Center
07:13PM 38.9756 -74.8439 34° Northeast 421 484 33,700 -1,920 Descending Washington Center
07:14PM 39.0708 -74.7628 33° Northeast 407 468 32,000 -1,740 Descending Washington Center
07:15PM 39.1703 -74.6733 35° Northeast 412 474 30,200 -1,740 Descending Washington Center
07:16PM 39.2633 -74.5917 34° Northeast 419 482 28,500 -2,160 Descending Washington Center
07:17PM 39.3564 -74.5072 35° Northeast 389 448 25,900 -2,460 Descending Washington Center
07:18PM 39.4369 -74.4333 35° Northeast 371 427 23,600 -2,220 Descending Washington Center
07:19PM 39.4378 -74.3153 89° East 292 336 21,600 -2,040 Descending Washington Center
07:20PM 39.3478 -74.2711 159° South 227 261 19,600 -1,800 Descending Washington Center
07:21PM 39.2631 -74.3344 210° Southwest 230 265 18,000 -840 Descending Washington Center
07:22PM 39.2031 -74.3917 216° Southwest 272 313 18,000  Level Washington Center
07:23PM 39.1689 -74.5047 249° West 268 308 18,000  Level Washington Center
07:25PM 39.3047 -74.5617 342° North 198 228 18,000  Level Washington Center
07:25PM 39.3675 -74.4742 47° Northeast 382 440 18,000  Level New York Center
07:26PM 39.4164 -74.4469 23° Northeast 292 336 18,000  Level New York Center
07:27PM 39.4917 -74.3675 39° Northeast 307 353 18,000  Level New York Center
07:28PM 39.5564 -74.3008 38° Northeast 301 346 18,000  Level New York Center
07:29PM 39.6253 -74.2261 40° Northeast 308 354 18,000  Level New York Center
07:30PM 39.6900 -74.1539 41° Northeast 326 375 18,100 -480 Climbing New York Center
07:31PM 39.7567 -74.0814 40° Northeast 319 367 17,100 -1,440 Descending New York Center
07:32PM 39.8211 -74.0114 40° Northeast 283 326 15,300 -1,800 Descending New York Center
07:33PM 39.8894 -73.9550 32° Northeast 283 326 13,500 -1,680 Descending New York Center
07:34PM 39.9508 -73.9119 28° Northeast 278 320 12,000 -1,320 Descending New York Center
07:35PM 40.0147 -73.8633 30° Northeast 272 313 11,000 -540 Descending New York Center
07:36PM 40.0850 -73.8122 29° Northeast 267 307 11,000 -600 Level New York Center
07:37PM 40.1425 -73.7606 34° Northeast 262 302 9,900 -1,320 Descending New York Center
07:38PM 40.1667 -73.7333 41° Northeast 246 283 9,100 -1,620 Descending New York TRACON
07:39PM 40.2333 -73.7000 21° North 240 276 7,600 -1,080 Descending New York TRACON
07:40PM 40.2833 -73.6500 37° Northeast 249 287 7,000 -300 Descending New York TRACON
07:41PM 40.3500 -73.6000 30° Northeast 257 296 7,000  Level New York TRACON
07:41PM 40.3825 -73.5803 25° Northeast 252 290 7,000  Level New York Center
07:42PM 40.4167 -73.5500 34° Northeast 255 293 7,000  Level New York TRACON
07:43PM 40.4667 -73.5167 27° Northeast 247 284 7,000 -480 Level New York TRACON
07:44PM 40.5333 -73.4833 21° North 244 281 6,100 -1,200 Descending New York TRACON
07:45PM 40.6000 -73.4833 360° North 241 277 4,500 -1,560 Descending New York TRACON
07:46PM 40.6667 -73.5000 349° North 241 277 3,000 -780 Descending New York TRACON
07:47PM 40.7167 -73.5000 360° North 187 215 3,000 -360 Level New York TRACON
07:48PM 40.7667 -73.5333 333° Northwest 198 228 2,300 -540 Descending New York TRACON
07:49PM 40.7833 -73.5833 294° West 167 192 2,000 -180 Descending New York TRACON
07:50PM 40.7500 -73.6333 229° Southwest 158 182 2,000  Level New York TRACON
07:51PM 40.7167 -73.6667 217° Southwest 159 183 2,000 -360 Level New York TRACON
07:52PM 40.6833 -73.7000 217° Southwest 146 168 1,300 -720 Descending New York TRACON